sensor_id;sensor_type;location;lat;lon;timestamp;temperature;humidity
36586;DHT22;22591;48.314;11.562;2023-11-21T00:00:00;21.90;72.40
36586;DHT22;22591;48.314;11.562;2023-11-21T00:02:26;21.90;72.40
36586;DHT22;22591;48.314;11.562;2023-11-21T00:04:52;21.90;72.50
36586;DHT22;22591;48.314;11.562;2023-11-21T00:07:18;21.90;72.40
36586;DHT22;22591;48.314;11.562;2023-11-21T00:09:43;21.90;72.40
36586;DHT22;22591;48.314;11.562;2023-11-21T00:12:09;21.90;72.40
36586;DHT22;22591;48.314;11.562;2023-11-21T00:14:36;21.90;72.40
36586;DHT22;22591;48.314;11.562;2023-11-21T00:17:02;21.90;72.40
36586;DHT22;22591;48.314;11.562;2023-11-21T00:19:28;21.90;72.40
36586;DHT22;22591;48.314;11.562;2023-11-21T00:21:53;21.90;72.40
36586;DHT22;22591;48.314;11.562;2023-11-21T00:24:19;21.90;72.40
36586;DHT22;22591;48.314;11.562;2023-11-21T00:26:44;21.90;72.40
36586;DHT22;22591;48.314;11.562;2023-11-21T00:29:10;21.90;72.40
36586;DHT22;22591;48.314;11.562;2023-11-21T00:31:36;21.90;72.40
36586;DHT22;22591;48.314;11.562;2023-11-21T00:34:05;21.90;72.40
36586;DHT22;22591;48.314;11.562;2023-11-21T00:36:31;21.90;72.40
36586;DHT22;22591;48.314;11.562;2023-11-21T00:38:57;21.90;72.40
36586;DHT22;22591;48.314;11.562;2023-11-21T00:41:23;21.90;72.40
36586;DHT22;22591;48.314;11.562;2023-11-21T00:43:48;21.90;72.40
36586;DHT22;22591;48.314;11.562;2023-11-21T00:46:15;21.90;72.40
36586;DHT22;22591;48.314;11.562;2023-11-21T00:48:41;21.90;72.40
36586;DHT22;22591;48.314;11.562;2023-11-21T00:51:06;21.90;72.40
36586;DHT22;22591;48.314;11.562;2023-11-21T00:53:32;21.90;72.40
36586;DHT22;22591;48.314;11.562;2023-11-21T00:55:58;21.90;72.40
36586;DHT22;22591;48.314;11.562;2023-11-21T00:58:26;21.80;72.40
36586;DHT22;22591;48.314;11.562;2023-11-21T01:00:52;21.90;72.40
36586;DHT22;22591;48.314;11.562;2023-11-21T01:03:18;21.90;72.40
36586;DHT22;22591;48.314;11.562;2023-11-21T01:05:44;21.90;72.40
36586;DHT22;22591;48.314;11.562;2023-11-21T01:08:09;21.80;72.40
36586;DHT22;22591;48.314;11.562;2023-11-21T01:10:35;21.90;72.40
36586;DHT22;22591;48.314;11.562;2023-11-21T01:13:02;21.90;72.40
36586;DHT22;22591;48.314;11.562;2023-11-21T01:15:30;21.90;72.40
36586;DHT22;22591;48.314;11.562;2023-11-21T01:17:56;21.90;72.40
36586;DHT22;22591;48.314;11.562;2023-11-21T01:20:21;21.90;72.40
36586;DHT22;22591;48.314;11.562;2023-11-21T01:22:47;21.90;72.40
36586;DHT22;22591;48.314;11.562;2023-11-21T01:25:15;21.80;72.30
36586;DHT22;22591;48.314;11.562;2023-11-21T01:27:42;21.90;72.30
36586;DHT22;22591;48.314;11.562;2023-11-21T01:30:09;21.80;72.30
36586;DHT22;22591;48.314;11.562;2023-11-21T01:32:36;21.90;72.40
36586;DHT22;22591;48.314;11.562;2023-11-21T01:35:02;21.90;72.40
36586;DHT22;22591;48.314;11.562;2023-11-21T01:37:28;21.90;72.40
36586;DHT22;22591;48.314;11.562;2023-11-21T01:39:54;21.90;72.30
36586;DHT22;22591;48.314;11.562;2023-11-21T01:42:24;21.90;72.40
36586;DHT22;22591;48.314;11.562;2023-11-21T01:44:49;21.80;72.30
36586;DHT22;22591;48.314;11.562;2023-11-21T01:47:16;21.90;72.30
36586;DHT22;22591;48.314;11.562;2023-11-21T01:49:44;21.80;72.30
36586;DHT22;22591;48.314;11.562;2023-11-21T01:52:10;21.80;72.30
36586;DHT22;22591;48.314;11.562;2023-11-21T01:54:37;21.90;72.30
36586;DHT22;22591;48.314;11.562;2023-11-21T01:57:04;21.80;72.30
36586;DHT22;22591;48.314;11.562;2023-11-21T01:59:38;21.80;72.30
36586;DHT22;22591;48.314;11.562;2023-11-21T02:02:07;21.90;72.30
36586;DHT22;22591;48.314;11.562;2023-11-21T02:04:33;21.90;72.30
36586;DHT22;22591;48.314;11.562;2023-11-21T02:06:59;21.90;72.30
36586;DHT22;22591;48.314;11.562;2023-11-21T02:09:28;21.90;72.30
36586;DHT22;22591;48.314;11.562;2023-11-21T02:11:55;21.90;72.30
36586;DHT22;22591;48.314;11.562;2023-11-21T02:14:21;21.90;72.30
36586;DHT22;22591;48.314;11.562;2023-11-21T02:16:51;21.90;72.30
36586;DHT22;22591;48.314;11.562;2023-11-21T02:19:21;21.90;72.30
36586;DHT22;22591;48.314;11.562;2023-11-21T02:21:49;21.90;72.30
36586;DHT22;22591;48.314;11.562;2023-11-21T02:24:15;21.90;72.30
36586;DHT22;22591;48.314;11.562;2023-11-21T02:26:43;21.90;72.30
36586;DHT22;22591;48.314;11.562;2023-11-21T02:29:08;21.90;72.30
36586;DHT22;22591;48.314;11.562;2023-11-21T02:31:37;21.90;72.30
36586;DHT22;22591;48.314;11.562;2023-11-21T02:34:11;21.90;72.30
36586;DHT22;22591;48.314;11.562;2023-11-21T02:36:38;21.90;72.30
36586;DHT22;22591;48.314;11.562;2023-11-21T02:39:04;21.90;72.30
36586;DHT22;22591;48.314;11.562;2023-11-21T02:41:30;21.80;72.30
36586;DHT22;22591;48.314;11.562;2023-11-21T02:43:55;21.90;72.30
36586;DHT22;22591;48.314;11.562;2023-11-21T02:46:21;21.90;72.30
36586;DHT22;22591;48.314;11.562;2023-11-21T02:48:47;21.90;72.20
36586;DHT22;22591;48.314;11.562;2023-11-21T02:51:13;21.90;72.30
36586;DHT22;22591;48.314;11.562;2023-11-21T02:53:38;21.90;72.20
36586;DHT22;22591;48.314;11.562;2023-11-21T02:56:04;21.90;72.20
36586;DHT22;22591;48.314;11.562;2023-11-21T02:58:30;21.90;72.20
36586;DHT22;22591;48.314;11.562;2023-11-21T03:00:56;21.90;72.20
36586;DHT22;22591;48.314;11.562;2023-11-21T03:03:21;21.90;72.30
36586;DHT22;22591;48.314;11.562;2023-11-21T03:05:49;21.90;72.30
36586;DHT22;22591;48.314;11.562;2023-11-21T03:08:15;21.90;72.30
36586;DHT22;22591;48.314;11.562;2023-11-21T03:10:40;21.80;72.20
36586;DHT22;22591;48.314;11.562;2023-11-21T03:13:06;21.80;72.20
36586;DHT22;22591;48.314;11.562;2023-11-21T03:15:31;21.90;72.30
36586;DHT22;22591;48.314;11.562;2023-11-21T03:17:58;21.90;72.20
36586;DHT22;22591;48.314;11.562;2023-11-21T03:20:23;21.80;72.20
36586;DHT22;22591;48.314;11.562;2023-11-21T03:22:49;21.90;72.30
36586;DHT22;22591;48.314;11.562;2023-11-21T03:25:15;21.90;72.20
36586;DHT22;22591;48.314;11.562;2023-11-21T03:27:42;21.90;72.20
36586;DHT22;22591;48.314;11.562;2023-11-21T03:30:09;21.80;72.20
36586;DHT22;22591;48.314;11.562;2023-11-21T03:32:36;21.90;72.30
36586;DHT22;22591;48.314;11.562;2023-11-21T03:35:02;21.80;72.20
36586;DHT22;22591;48.314;11.562;2023-11-21T03:37:28;21.80;72.20
36586;DHT22;22591;48.314;11.562;2023-11-21T03:39:57;21.90;72.20
36586;DHT22;22591;48.314;11.562;2023-11-21T03:42:23;21.80;72.20
36586;DHT22;22591;48.314;11.562;2023-11-21T03:44:48;21.90;72.20
36586;DHT22;22591;48.314;11.562;2023-11-21T03:47:14;21.80;72.20
36586;DHT22;22591;48.314;11.562;2023-11-21T03:49:40;21.90;72.20
36586;DHT22;22591;48.314;11.562;2023-11-21T03:52:05;21.80;72.20
36586;DHT22;22591;48.314;11.562;2023-11-21T03:54:33;21.90;72.20
36586;DHT22;22591;48.314;11.562;2023-11-21T03:56:58;21.90;72.20
36586;DHT22;22591;48.314;11.562;2023-11-21T03:59:24;21.80;72.20
36586;DHT22;22591;48.314;11.562;2023-11-21T04:01:50;21.90;72.20
36586;DHT22;22591;48.314;11.562;2023-11-21T04:04:15;21.80;72.10
36586;DHT22;22591;48.314;11.562;2023-11-21T04:06:41;21.90;72.20
36586;DHT22;22591;48.314;11.562;2023-11-21T04:09:07;21.80;72.10
36586;DHT22;22591;48.314;11.562;2023-11-21T04:11:32;21.80;72.10
36586;DHT22;22591;48.314;11.562;2023-11-21T04:13:58;21.80;72.20
36586;DHT22;22591;48.314;11.562;2023-11-21T04:16:23;21.90;72.20
36586;DHT22;22591;48.314;11.562;2023-11-21T04:18:49;21.90;72.20
36586;DHT22;22591;48.314;11.562;2023-11-21T04:21:15;21.80;72.10
36586;DHT22;22591;48.314;11.562;2023-11-21T04:23:40;21.80;72.10
36586;DHT22;22591;48.314;11.562;2023-11-21T04:26:06;21.90;72.20
36586;DHT22;22591;48.314;11.562;2023-11-21T04:28:31;21.80;72.10
36586;DHT22;22591;48.314;11.562;2023-11-21T04:30:57;21.80;72.10
36586;DHT22;22591;48.314;11.562;2023-11-21T04:33:23;21.90;72.20
36586;DHT22;22591;48.314;11.562;2023-11-21T04:35:48;21.80;72.10
36586;DHT22;22591;48.314;11.562;2023-11-21T04:38:14;21.90;72.20
36586;DHT22;22591;48.314;11.562;2023-11-21T04:40:39;21.80;72.10
36586;DHT22;22591;48.314;11.562;2023-11-21T04:43:05;21.80;72.10
36586;DHT22;22591;48.314;11.562;2023-11-21T04:45:30;21.90;72.20
36586;DHT22;22591;48.314;11.562;2023-11-21T04:47:56;21.80;72.10
36586;DHT22;22591;48.314;11.562;2023-11-21T04:50:22;21.80;72.10
36586;DHT22;22591;48.314;11.562;2023-11-21T04:52:47;21.80;72.10
36586;DHT22;22591;48.314;11.562;2023-11-21T04:55:13;21.80;72.10
36586;DHT22;22591;48.314;11.562;2023-11-21T04:57:39;21.80;72.10
36586;DHT22;22591;48.314;11.562;2023-11-21T05:00:08;21.80;72.10
36586;DHT22;22591;48.314;11.562;2023-11-21T05:02:34;21.90;72.10
36586;DHT22;22591;48.314;11.562;2023-11-21T05:05:00;21.80;72.00
36586;DHT22;22591;48.314;11.562;2023-11-21T05:07:26;21.80;72.00
36586;DHT22;22591;48.314;11.562;2023-11-21T05:09:55;21.90;72.40
36586;DHT22;22591;48.314;11.562;2023-11-21T05:12:22;21.90;72.10
36586;DHT22;22591;48.314;11.562;2023-11-21T05:14:49;21.80;72.00
36586;DHT22;22591;48.314;11.562;2023-11-21T05:17:14;21.90;72.10
36586;DHT22;22591;48.314;11.562;2023-11-21T05:19:40;21.90;72.10
36586;DHT22;22591;48.314;11.562;2023-11-21T05:22:06;21.90;72.10
36586;DHT22;22591;48.314;11.562;2023-11-21T05:24:32;21.80;72.00
36586;DHT22;22591;48.314;11.562;2023-11-21T05:26:57;21.90;72.00
36586;DHT22;22591;48.314;11.562;2023-11-21T05:29:23;21.90;72.10
36586;DHT22;22591;48.314;11.562;2023-11-21T05:31:49;21.90;72.10
36586;DHT22;22591;48.314;11.562;2023-11-21T05:34:15;21.90;72.20
36586;DHT22;22591;48.314;11.562;2023-11-21T05:36:43;21.90;72.20
36586;DHT22;22591;48.314;11.562;2023-11-21T05:39:08;21.90;72.40
36586;DHT22;22591;48.314;11.562;2023-11-21T05:41:36;21.90;72.50
36586;DHT22;22591;48.314;11.562;2023-11-21T05:44:02;21.90;72.50
36586;DHT22;22591;48.314;11.562;2023-11-21T05:46:27;21.90;72.50
36586;DHT22;22591;48.314;11.562;2023-11-21T05:48:53;21.90;72.50
36586;DHT22;22591;48.314;11.562;2023-11-21T05:51:19;21.90;72.40
36586;DHT22;22591;48.314;11.562;2023-11-21T05:53:44;21.90;72.40
36586;DHT22;22591;48.314;11.562;2023-11-21T05:56:10;21.90;72.50
36586;DHT22;22591;48.314;11.562;2023-11-21T05:58:35;21.90;72.50
36586;DHT22;22591;48.314;11.562;2023-11-21T06:01:01;21.90;72.50
36586;DHT22;22591;48.314;11.562;2023-11-21T06:03:28;21.90;72.50
36586;DHT22;22591;48.314;11.562;2023-11-21T06:05:53;21.90;72.50
36586;DHT22;22591;48.314;11.562;2023-11-21T06:08:19;21.90;72.50
36586;DHT22;22591;48.314;11.562;2023-11-21T06:10:45;21.90;72.50
36586;DHT22;22591;48.314;11.562;2023-11-21T06:13:10;21.90;72.50
36586;DHT22;22591;48.314;11.562;2023-11-21T06:15:36;21.80;72.90
36586;DHT22;22591;48.314;11.562;2023-11-21T06:18:01;21.90;72.30
36586;DHT22;22591;48.314;11.562;2023-11-21T06:20:27;21.90;72.20
36586;DHT22;22591;48.314;11.562;2023-11-21T06:22:53;21.90;72.20
36586;DHT22;22591;48.314;11.562;2023-11-21T06:25:19;21.90;72.10
36586;DHT22;22591;48.314;11.562;2023-11-21T06:27:46;21.90;72.00
36586;DHT22;22591;48.314;11.562;2023-11-21T06:30:13;21.90;71.90
36586;DHT22;22591;48.314;11.562;2023-11-21T06:32:40;21.90;71.70
36586;DHT22;22591;48.314;11.562;2023-11-21T06:35:07;21.90;71.70
36586;DHT22;22591;48.314;11.562;2023-11-21T06:37:33;21.90;71.60
36586;DHT22;22591;48.314;11.562;2023-11-21T06:40:00;21.90;71.50
36586;DHT22;22591;48.314;11.562;2023-11-21T06:42:26;21.90;71.40
36586;DHT22;22591;48.314;11.562;2023-11-21T06:44:53;21.90;71.40
36586;DHT22;22591;48.314;11.562;2023-11-21T06:47:19;21.90;71.40
36586;DHT22;22591;48.314;11.562;2023-11-21T06:49:50;21.90;71.30
36586;DHT22;22591;48.314;11.562;2023-11-21T06:52:16;21.90;71.10
36586;DHT22;22591;48.314;11.562;2023-11-21T06:54:42;21.80;71.00
36586;DHT22;22591;48.314;11.562;2023-11-21T06:57:07;21.90;71.10
36586;DHT22;22591;48.314;11.562;2023-11-21T06:59:33;21.80;70.90
36586;DHT22;22591;48.314;11.562;2023-11-21T07:01:59;21.80;70.80
36586;DHT22;22591;48.314;11.562;2023-11-21T07:04:24;21.90;70.80
36586;DHT22;22591;48.314;11.562;2023-11-21T07:06:53;21.90;70.70
36586;DHT22;22591;48.314;11.562;2023-11-21T07:09:19;21.90;70.60
36586;DHT22;22591;48.314;11.562;2023-11-21T07:11:50;21.90;70.60
36586;DHT22;22591;48.314;11.562;2023-11-21T07:14:16;21.90;70.40
36586;DHT22;22591;48.314;11.562;2023-11-21T07:16:42;21.90;70.40
36586;DHT22;22591;48.314;11.562;2023-11-21T07:19:08;21.90;70.20
36586;DHT22;22591;48.314;11.562;2023-11-21T07:21:34;21.80;70.10
36586;DHT22;22591;48.314;11.562;2023-11-21T07:24:01;21.80;70.10
36586;DHT22;22591;48.314;11.562;2023-11-21T07:26:27;21.80;70.00
36586;DHT22;22591;48.314;11.562;2023-11-21T07:28:53;21.80;70.00
36586;DHT22;22591;48.314;11.562;2023-11-21T07:31:19;21.80;69.90
36586;DHT22;22591;48.314;11.562;2023-11-21T07:33:46;21.90;69.80
36586;DHT22;22591;48.314;11.562;2023-11-21T07:36:17;21.90;69.70
36586;DHT22;22591;48.314;11.562;2023-11-21T07:38:44;21.90;69.60
36586;DHT22;22591;48.314;11.562;2023-11-21T07:41:10;21.90;69.50
36586;DHT22;22591;48.314;11.562;2023-11-21T07:43:36;21.90;69.40
36586;DHT22;22591;48.314;11.562;2023-11-21T07:46:02;21.90;69.40
36586;DHT22;22591;48.314;11.562;2023-11-21T07:48:32;21.80;69.30
36586;DHT22;22591;48.314;11.562;2023-11-21T07:50:58;21.80;69.30
36586;DHT22;22591;48.314;11.562;2023-11-21T07:53:24;21.90;69.20
36586;DHT22;22591;48.314;11.562;2023-11-21T07:55:51;21.80;69.10
36586;DHT22;22591;48.314;11.562;2023-11-21T07:58:17;21.80;69.10
36586;DHT22;22591;48.314;11.562;2023-11-21T08:00:43;21.80;69.00
36586;DHT22;22591;48.314;11.562;2023-11-21T08:03:09;21.90;69.00
36586;DHT22;22591;48.314;11.562;2023-11-21T08:05:35;21.80;68.90
36586;DHT22;22591;48.314;11.562;2023-11-21T08:08:00;21.80;68.80
36586;DHT22;22591;48.314;11.562;2023-11-21T08:10:26;21.80;68.80
36586;DHT22;22591;48.314;11.562;2023-11-21T08:12:52;21.80;68.80
36586;DHT22;22591;48.314;11.562;2023-11-21T08:15:19;21.80;68.80
36586;DHT22;22591;48.314;11.562;2023-11-21T08:17:44;21.80;68.70
36586;DHT22;22591;48.314;11.562;2023-11-21T08:20:10;21.90;68.70
36586;DHT22;22591;48.314;11.562;2023-11-21T08:22:36;21.90;68.60
36586;DHT22;22591;48.314;11.562;2023-11-21T08:25:02;21.80;68.50
36586;DHT22;22591;48.314;11.562;2023-11-21T08:27:29;21.80;68.60
36586;DHT22;22591;48.314;11.562;2023-11-21T08:29:55;21.80;68.50
36586;DHT22;22591;48.314;11.562;2023-11-21T08:32:21;21.80;68.50
36586;DHT22;22591;48.314;11.562;2023-11-21T08:34:47;21.80;68.50
36586;DHT22;22591;48.314;11.562;2023-11-21T08:37:16;21.80;68.40
36586;DHT22;22591;48.314;11.562;2023-11-21T08:39:43;21.80;68.40
36586;DHT22;22591;48.314;11.562;2023-11-21T08:42:08;21.90;68.50
36586;DHT22;22591;48.314;11.562;2023-11-21T08:44:34;21.80;68.20
36586;DHT22;22591;48.314;11.562;2023-11-21T08:46:59;21.80;68.30
36586;DHT22;22591;48.314;11.562;2023-11-21T08:49:25;21.80;68.10
36586;DHT22;22591;48.314;11.562;2023-11-21T08:51:53;21.80;68.00
36586;DHT22;22591;48.314;11.562;2023-11-21T08:54:21;21.80;68.00
36586;DHT22;22591;48.314;11.562;2023-11-21T08:56:46;21.80;67.90
36586;DHT22;22591;48.314;11.562;2023-11-21T08:59:13;21.80;67.80
36586;DHT22;22591;48.314;11.562;2023-11-21T09:01:39;21.90;67.90
36586;DHT22;22591;48.314;11.562;2023-11-21T09:04:05;21.90;67.70
36586;DHT22;22591;48.314;11.562;2023-11-21T09:06:31;21.90;67.70
36586;DHT22;22591;48.314;11.562;2023-11-21T09:08:56;21.80;67.70
36586;DHT22;22591;48.314;11.562;2023-11-21T09:11:22;21.80;67.70
36586;DHT22;22591;48.314;11.562;2023-11-21T09:13:48;21.90;67.70
36586;DHT22;22591;48.314;11.562;2023-11-21T09:16:14;21.90;67.80
36586;DHT22;22591;48.314;11.562;2023-11-21T09:18:41;21.90;67.90
36586;DHT22;22591;48.314;11.562;2023-11-21T09:21:06;21.90;67.80
36586;DHT22;22591;48.314;11.562;2023-11-21T09:23:32;21.90;67.80
36586;DHT22;22591;48.314;11.562;2023-11-21T09:25:58;21.90;67.80
36586;DHT22;22591;48.314;11.562;2023-11-21T09:28:25;21.90;67.80
36586;DHT22;22591;48.314;11.562;2023-11-21T09:30:53;21.90;67.90
36586;DHT22;22591;48.314;11.562;2023-11-21T09:33:18;21.90;67.90
36586;DHT22;22591;48.314;11.562;2023-11-21T09:35:44;21.90;67.90
36586;DHT22;22591;48.314;11.562;2023-11-21T09:38:09;21.90;68.00
36586;DHT22;22591;48.314;11.562;2023-11-21T09:40:36;21.90;67.90
36586;DHT22;22591;48.314;11.562;2023-11-21T09:43:12;21.90;68.00
36586;DHT22;22591;48.314;11.562;2023-11-21T09:45:48;21.90;68.10
36586;DHT22;22591;48.314;11.562;2023-11-21T09:48:19;21.90;68.00
36586;DHT22;22591;48.314;11.562;2023-11-21T09:50:47;21.90;68.00
36586;DHT22;22591;48.314;11.562;2023-11-21T09:53:21;21.90;68.00
36586;DHT22;22591;48.314;11.562;2023-11-21T09:55:49;21.90;68.20
36586;DHT22;22591;48.314;11.562;2023-11-21T09:58:16;21.90;68.20
36586;DHT22;22591;48.314;11.562;2023-11-21T10:00:46;21.90;68.20
36586;DHT22;22591;48.314;11.562;2023-11-21T10:03:13;21.90;68.20
36586;DHT22;22591;48.314;11.562;2023-11-21T10:05:40;21.90;68.20
36586;DHT22;22591;48.314;11.562;2023-11-21T10:08:11;21.90;68.30
36586;DHT22;22591;48.314;11.562;2023-11-21T10:10:38;21.90;68.30
36586;DHT22;22591;48.314;11.562;2023-11-21T10:13:11;21.90;68.30
36586;DHT22;22591;48.314;11.562;2023-11-21T10:15:37;21.90;68.30
36586;DHT22;22591;48.314;11.562;2023-11-21T10:18:04;21.90;68.40
36586;DHT22;22591;48.314;11.562;2023-11-21T10:20:32;21.90;68.40
36586;DHT22;22591;48.314;11.562;2023-11-21T10:22:59;21.90;68.40
36586;DHT22;22591;48.314;11.562;2023-11-21T10:25:27;21.90;68.40
36586;DHT22;22591;48.314;11.562;2023-11-21T10:27:58;21.90;68.50
36586;DHT22;22591;48.314;11.562;2023-11-21T10:30:31;21.90;68.50
36586;DHT22;22591;48.314;11.562;2023-11-21T10:33:01;21.90;68.50
36586;DHT22;22591;48.314;11.562;2023-11-21T10:35:38;21.90;68.50
36586;DHT22;22591;48.314;11.562;2023-11-21T10:38:05;21.90;68.50
36586;DHT22;22591;48.314;11.562;2023-11-21T10:40:31;21.90;68.50
36586;DHT22;22591;48.314;11.562;2023-11-21T10:43:06;21.90;68.50
36586;DHT22;22591;48.314;11.562;2023-11-21T10:45:34;21.90;68.50
36586;DHT22;22591;48.314;11.562;2023-11-21T10:48:00;21.90;68.50
36586;DHT22;22591;48.314;11.562;2023-11-21T10:50:26;21.90;68.60
36586;DHT22;22591;48.314;11.562;2023-11-21T10:52:51;21.90;68.60
36586;DHT22;22591;48.314;11.562;2023-11-21T10:55:18;21.90;68.60
36586;DHT22;22591;48.314;11.562;2023-11-21T10:57:49;21.90;68.60
36586;DHT22;22591;48.314;11.562;2023-11-21T11:00:16;21.90;68.60
36586;DHT22;22591;48.314;11.562;2023-11-21T11:02:46;21.90;68.60
36586;DHT22;22591;48.314;11.562;2023-11-21T11:05:14;21.90;68.60
36586;DHT22;22591;48.314;11.562;2023-11-21T11:07:43;21.90;68.60
36586;DHT22;22591;48.314;11.562;2023-11-21T11:10:10;21.90;68.70
36586;DHT22;22591;48.314;11.562;2023-11-21T11:12:40;21.90;68.70
36586;DHT22;22591;48.314;11.562;2023-11-21T11:15:07;21.90;68.70
36586;DHT22;22591;48.314;11.562;2023-11-21T11:17:36;21.90;68.70
36586;DHT22;22591;48.314;11.562;2023-11-21T11:20:04;21.90;68.80
36586;DHT22;22591;48.314;11.562;2023-11-21T11:22:40;21.90;68.70
36586;DHT22;22591;48.314;11.562;2023-11-21T11:27:57;21.80;67.40
36586;DHT22;22591;48.314;11.562;2023-11-21T11:33:26;21.80;68.30
36586;DHT22;22591;48.314;11.562;2023-11-21T11:36:05;21.90;68.30
36586;DHT22;22591;48.314;11.562;2023-11-21T11:38:33;21.90;68.20
36586;DHT22;22591;48.314;11.562;2023-11-21T11:41:05;21.90;68.20
36586;DHT22;22591;48.314;11.562;2023-11-21T11:43:31;21.90;68.20
36586;DHT22;22591;48.314;11.562;2023-11-21T11:46:10;21.90;68.30
36586;DHT22;22591;48.314;11.562;2023-11-21T11:48:39;21.90;68.40
36586;DHT22;22591;48.314;11.562;2023-11-21T11:51:13;21.90;68.30
36586;DHT22;22591;48.314;11.562;2023-11-21T11:53:47;21.90;68.30
36586;DHT22;22591;48.314;11.562;2023-11-21T11:56:26;21.90;68.50
36586;DHT22;22591;48.314;11.562;2023-11-21T11:59:01;21.90;68.50
36586;DHT22;22591;48.314;11.562;2023-11-21T12:01:28;21.90;68.50
36586;DHT22;22591;48.314;11.562;2023-11-21T12:06:57;21.90;68.60
36586;DHT22;22591;48.314;11.562;2023-11-21T12:09:26;21.90;68.60
36586;DHT22;22591;48.314;11.562;2023-11-21T12:11:53;21.90;68.60
36586;DHT22;22591;48.314;11.562;2023-11-21T12:14:20;21.90;68.50
36586;DHT22;22591;48.314;11.562;2023-11-21T12:16:45;21.90;68.60
36586;DHT22;22591;48.314;11.562;2023-11-21T12:19:12;21.90;68.80
36586;DHT22;22591;48.314;11.562;2023-11-21T12:21:38;21.90;68.60
36586;DHT22;22591;48.314;11.562;2023-11-21T12:24:06;21.90;68.50
36586;DHT22;22591;48.314;11.562;2023-11-21T12:26:34;21.90;68.60
36586;DHT22;22591;48.314;11.562;2023-11-21T12:29:00;21.90;68.60
36586;DHT22;22591;48.314;11.562;2023-11-21T12:31:28;21.90;68.60
36586;DHT22;22591;48.314;11.562;2023-11-21T12:33:55;21.90;68.60
36586;DHT22;22591;48.314;11.562;2023-11-21T12:36:21;21.80;68.60
36586;DHT22;22591;48.314;11.562;2023-11-21T12:38:47;21.90;68.60
36586;DHT22;22591;48.314;11.562;2023-11-21T12:41:13;21.90;68.60
36586;DHT22;22591;48.314;11.562;2023-11-21T12:43:38;21.90;68.60
36586;DHT22;22591;48.314;11.562;2023-11-21T12:46:08;21.90;68.50
36586;DHT22;22591;48.314;11.562;2023-11-21T12:48:43;21.90;68.50
36586;DHT22;22591;48.314;11.562;2023-11-21T12:51:12;21.90;68.50
36586;DHT22;22591;48.314;11.562;2023-11-21T12:53:41;21.90;68.50
36586;DHT22;22591;48.314;11.562;2023-11-21T12:56:10;21.80;68.40
36586;DHT22;22591;48.314;11.562;2023-11-21T12:58:40;21.90;68.40
36586;DHT22;22591;48.314;11.562;2023-11-21T13:01:10;21.90;68.40
36586;DHT22;22591;48.314;11.562;2023-11-21T13:03:40;21.90;68.50
36586;DHT22;22591;48.314;11.562;2023-11-21T13:06:07;21.90;68.40
36586;DHT22;22591;48.314;11.562;2023-11-21T13:08:33;21.90;68.50
36586;DHT22;22591;48.314;11.562;2023-11-21T13:10:59;21.90;68.50
36586;DHT22;22591;48.314;11.562;2023-11-21T13:13:28;21.90;68.50
36586;DHT22;22591;48.314;11.562;2023-11-21T13:15:55;21.90;68.60
36586;DHT22;22591;48.314;11.562;2023-11-21T13:18:21;21.90;68.60
36586;DHT22;22591;48.314;11.562;2023-11-21T13:20:48;21.90;68.70
36586;DHT22;22591;48.314;11.562;2023-11-21T13:23:15;21.90;68.80
36586;DHT22;22591;48.314;11.562;2023-11-21T13:25:44;21.90;68.80
36586;DHT22;22591;48.314;11.562;2023-11-21T13:28:11;21.90;68.80
36586;DHT22;22591;48.314;11.562;2023-11-21T13:30:37;21.90;68.80
36586;DHT22;22591;48.314;11.562;2023-11-21T13:33:06;21.90;68.90
36586;DHT22;22591;48.314;11.562;2023-11-21T13:35:34;21.90;68.90
36586;DHT22;22591;48.314;11.562;2023-11-21T13:38:13;21.90;68.90
36586;DHT22;22591;48.314;11.562;2023-11-21T13:40:40;21.90;68.90
36586;DHT22;22591;48.314;11.562;2023-11-21T13:43:12;21.90;68.90
36586;DHT22;22591;48.314;11.562;2023-11-21T13:45:39;21.90;68.90
36586;DHT22;22591;48.314;11.562;2023-11-21T13:48:08;21.90;69.00
36586;DHT22;22591;48.314;11.562;2023-11-21T13:50:36;21.90;69.10
36586;DHT22;22591;48.314;11.562;2023-11-21T13:53:03;21.90;69.20
36586;DHT22;22591;48.314;11.562;2023-11-21T13:55:48;21.90;69.10
36586;DHT22;22591;48.314;11.562;2023-11-21T13:58:15;21.90;69.20
36586;DHT22;22591;48.314;11.562;2023-11-21T14:00:47;21.90;69.20
36586;DHT22;22591;48.314;11.562;2023-11-21T14:03:21;21.90;69.20
36586;DHT22;22591;48.314;11.562;2023-11-21T14:05:48;21.90;69.30
36586;DHT22;22591;48.314;11.562;2023-11-21T14:08:20;21.90;69.30
36586;DHT22;22591;48.314;11.562;2023-11-21T14:10:47;21.90;69.30
36586;DHT22;22591;48.314;11.562;2023-11-21T14:13:21;21.90;69.40
36586;DHT22;22591;48.314;11.562;2023-11-21T14:15:48;21.90;69.40
36586;DHT22;22591;48.314;11.562;2023-11-21T14:18:16;21.90;69.40
36586;DHT22;22591;48.314;11.562;2023-11-21T14:20:43;21.90;69.40
36586;DHT22;22591;48.314;11.562;2023-11-21T14:23:10;21.90;69.40
36586;DHT22;22591;48.314;11.562;2023-11-21T14:25:37;21.90;69.40
36586;DHT22;22591;48.314;11.562;2023-11-21T14:28:06;21.90;69.50
36586;DHT22;22591;48.314;11.562;2023-11-21T14:30:32;21.90;69.50
36586;DHT22;22591;48.314;11.562;2023-11-21T14:33:00;21.90;69.50
36586;DHT22;22591;48.314;11.562;2023-11-21T14:35:27;21.90;69.50
36586;DHT22;22591;48.314;11.562;2023-11-21T14:37:53;21.90;69.50
36586;DHT22;22591;48.314;11.562;2023-11-21T14:40:19;21.90;69.60
36586;DHT22;22591;48.314;11.562;2023-11-21T14:42:50;21.90;69.60
36586;DHT22;22591;48.314;11.562;2023-11-21T14:45:18;21.90;69.60
36586;DHT22;22591;48.314;11.562;2023-11-21T14:47:46;21.90;69.60
36586;DHT22;22591;48.314;11.562;2023-11-21T14:50:21;21.90;69.60
36586;DHT22;22591;48.314;11.562;2023-11-21T14:53:05;21.90;69.60
36586;DHT22;22591;48.314;11.562;2023-11-21T14:55:35;21.90;69.70
36586;DHT22;22591;48.314;11.562;2023-11-21T14:58:17;21.90;69.70
36586;DHT22;22591;48.314;11.562;2023-11-21T15:01:00;21.90;69.70
36586;DHT22;22591;48.314;11.562;2023-11-21T15:03:28;21.90;69.80
36586;DHT22;22591;48.314;11.562;2023-11-21T15:06:00;21.90;69.80
36586;DHT22;22591;48.314;11.562;2023-11-21T15:08:43;21.90;69.80
36586;DHT22;22591;48.314;11.562;2023-11-21T15:11:09;21.90;69.90
36586;DHT22;22591;48.314;11.562;2023-11-21T15:13:40;21.90;69.90
36586;DHT22;22591;48.314;11.562;2023-11-21T15:16:07;21.90;69.70
36586;DHT22;22591;48.314;11.562;2023-11-21T15:18:33;21.90;69.70
36586;DHT22;22591;48.314;11.562;2023-11-21T15:21:01;21.90;70.30
36586;DHT22;22591;48.314;11.562;2023-11-21T15:23:28;21.90;69.80